Time;durP1;ratioP1;P1;durP2;ratioP2;P2;SDS_P1;SDS_P2;PMS_P1;PMS_P2;Temp;Humidity;BMP_temperature;BMP_pressure;BME280_temperature;BME280_humidity;BME280_pressure;Samples;Min_cycle;Max_cycle;Signal;HPM_P1;HPM_P2
2023/07/18 00:00:27;;;;;;;;;;;;;;;17.58;70.40;101183.77;108497;1262;67575;-85
2023/07/18 00:03:15;;;;;;;;;;;;;;;17.55;70.58;101189.25;108380;1260;126268;-85
2023/07/18 00:05:42;;;;;;;;;;;;;;;17.49;70.61;101199.70;108537;1262;59562;-85
2023/07/18 00:08:11;;;;;;;;;;;;;;;17.42;70.74;101204.12;108592;1261;59394;-85
2023/07/18 00:10:38;;;;;;;;;;;;;;;17.38;70.99;101202.67;108433;1261;125060;-86
2023/07/18 00:13:05;;;;;;;;;;;;;;;17.33;71.08;101199.98;108566;1261;67833;-86
2023/07/18 00:15:32;;;;;;;;;;;;;;;17.27;71.07;101199.61;108393;1277;125568;-85
2023/07/18 00:18:02;;;;;;;;;;;;;;;17.20;71.13;101196.21;108419;1261;59860;-85
2023/07/18 00:20:30;;;;;;;;;;;;;;;17.11;71.21;101190.50;108389;1265;126107;-85
2023/07/18 00:23:00;;;;;;;;;;;;;;;17.04;71.20;101195.61;108467;1260;74747;-85
2023/07/18 00:25:27;;;;;;;;;;;;;;;16.99;71.36;101188.30;108529;1260;64926;-85
2023/07/18 00:27:53;;;;;;;;;;;;;;;16.92;71.39;101183.46;108363;1262;125915;-85
2023/07/18 00:30:20;;;;;;;;;;;;;;;16.85;71.36;101182.72;108447;1262;60681;-85
2023/07/18 00:32:47;;;;;;;;;;;;;;;16.79;71.39;101184.23;108359;1260;125761;-85
2023/07/18 00:35:14;;;;;;;;;;;;;;;16.75;71.53;101188.83;108493;1262;74144;-85
2023/07/18 00:37:42;;;;;;;;;;;;;;;16.69;71.66;101191.63;108532;1262;67428;-85
2023/07/18 00:40:12;;;;;;;;;;;;;;;16.64;71.81;101200.44;108323;1261;126148;-85
2023/07/18 00:42:43;;;;;;;;;;;;;;;16.59;71.92;101202.54;108473;1262;60100;-85
2023/07/18 00:45:10;;;;;;;;;;;;;;;16.54;72.09;101202.31;108435;1262;125440;-85
2023/07/18 00:47:40;;;;;;;;;;;;;;;16.49;72.10;101203.52;108473;1261;74703;-85
2023/07/18 00:50:10;;;;;;;;;;;;;;;16.47;72.27;101201.92;108544;1260;66968;-85
2023/07/18 00:52:40;;;;;;;;;;;;;;;16.45;72.42;101201.72;108472;1261;125343;-85
2023/07/18 00:55:10;;;;;;;;;;;;;;;16.41;72.37;101206.48;108483;1262;59358;-85
2023/07/18 00:57:38;;;;;;;;;;;;;;;16.36;72.49;101211.74;108419;1265;125536;-84
2023/07/18 01:00:11;;;;;;;;;;;;;;;16.32;72.65;101219.68;108341;1262;74469;-84
2023/07/18 01:02:39;;;;;;;;;;;;;;;16.28;72.56;101212.91;108280;1262;125611;-84
2023/07/18 01:05:07;;;;;;;;;;;;;;;16.26;72.63;101224.23;108455;1262;73571;-84
2023/07/18 01:07:34;;;;;;;;;;;;;;;16.25;72.61;101226.52;108526;1262;59091;-83
2023/07/18 01:10:14;;;;;;;;;;;;;;;16.22;72.56;101214.98;108349;1262;125135;-83
2023/07/18 01:12:43;;;;;;;;;;;;;;;16.16;72.37;101207.49;108207;1262;74996;-83
2023/07/18 01:15:12;;;;;;;;;;;;;;;16.10;72.41;101206.20;108399;1262;125783;-84
2023/07/18 01:17:40;;;;;;;;;;;;;;;16.06;72.44;101222.63;108472;1263;71998;-84
2023/07/18 01:20:11;;;;;;;;;;;;;;;16.03;72.42;101231.98;108467;1262;59259;-84
2023/07/18 01:22:38;;;;;;;;;;;;;;;16.00;72.44;101230.70;108438;1264;124687;-84
2023/07/18 01:25:05;;;;;;;;;;;;;;;15.97;72.49;101234.73;108417;1266;72872;-84
2023/07/18 01:27:36;;;;;;;;;;;;;;;15.94;72.51;101236.83;108284;1268;125258;-85
2023/07/18 01:30:05;;;;;;;;;;;;;;;15.89;72.62;101240.69;108322;1261;73566;-84
2023/07/18 01:32:33;;;;;;;;;;;;;;;15.85;72.69;101241.52;108165;1261;124990;-84
2023/07/18 01:35:02;;;;;;;;;;;;;;;15.81;72.69;101239.16;108400;1262;60761;-84
2023/07/18 01:37:32;;;;;;;;;;;;;;;15.79;72.82;101239.68;108529;1262;74091;-84
2023/07/18 01:40:01;;;;;;;;;;;;;;;15.80;72.90;101241.98;108233;1262;124983;-84
2023/07/18 01:42:28;;;;;;;;;;;;;;;15.83;72.91;101249.29;108438;1270;72570;-84
2023/07/18 01:44:55;;;;;;;;;;;;;;;15.85;72.90;101265.05;108350;1263;125708;-84
2023/07/18 01:47:25;;;;;;;;;;;;;;;15.84;72.79;101274.95;108476;1262;60167;-85
2023/07/18 01:49:52;;;;;;;;;;;;;;;15.83;72.76;101284.84;108539;1260;73483;-84
2023/07/18 01:52:19;;;;;;;;;;;;;;;15.83;72.94;101301.31;108328;1260;125619;-84
2023/07/18 01:54:46;;;;;;;;;;;;;;;15.87;73.02;101312.51;108433;1262;72711;-84
2023/07/18 01:57:13;;;;;;;;;;;;;;;15.91;73.14;101321.76;108420;1260;125512;-84
2023/07/18 01:59:39;;;;;;;;;;;;;;;15.96;73.28;101323.05;108359;1260;60935;-84
2023/07/18 02:02:09;;;;;;;;;;;;;;;15.98;73.29;101324.48;108537;1261;75100;-84
2023/07/18 02:04:36;;;;;;;;;;;;;;;15.97;73.57;101320.77;108423;1262;124780;-84
2023/07/18 02:07:03;;;;;;;;;;;;;;;15.95;73.60;101321.09;108251;1267;72649;-84
2023/07/18 02:09:30;;;;;;;;;;;;;;;15.95;73.67;101314.90;108292;1262;126008;-84
2023/07/18 02:11:57;;;;;;;;;;;;;;;15.96;73.67;101307.83;108509;1260;59367;-84
2023/07/18 02:14:24;;;;;;;;;;;;;;;15.98;73.67;101297.59;108471;1264;126689;-85
2023/07/18 02:16:51;;;;;;;;;;;;;;;16.00;73.71;101300.80;108539;1261;67060;-84
2023/07/18 02:19:17;;;;;;;;;;;;;;;16.03;73.65;101305.80;108576;1262;74003;-84
2023/07/18 02:21:44;;;;;;;;;;;;;;;16.02;73.51;101303.31;108316;1266;125233;-84
2023/07/18 02:24:11;;;;;;;;;;;;;;;16.00;73.55;101303.63;108498;1262;60150;-84
2023/07/18 02:26:38;;;;;;;;;;;;;;;15.93;73.24;101294.70;108272;1263;126091;-84
2023/07/18 02:29:05;;;;;;;;;;;;;;;15.85;72.92;101294.09;108519;1260;67367;-85
2023/07/18 02:31:33;;;;;;;;;;;;;;;15.80;72.71;101289.05;108242;1261;72737;-85
2023/07/18 02:33:59;;;;;;;;;;;;;;;15.77;72.45;101288.50;108155;1263;126280;-84
2023/07/18 02:36:27;;;;;;;;;;;;;;;15.74;72.30;101289.70;108601;1265;59497;-84
2023/07/18 02:38:54;;;;;;;;;;;;;;;15.69;72.21;101296.32;108439;1261;127294;-84
2023/07/18 02:41:20;;;;;;;;;;;;;;;15.63;72.07;101302.80;108413;1260;67715;-84
2023/07/18 02:43:47;;;;;;;;;;;;;;;15.56;72.07;101297.92;108428;1261;73282;-84
2023/07/18 02:46:14;;;;;;;;;;;;;;;15.49;72.04;101302.95;108362;1262;126829;-84
2023/07/18 02:48:41;;;;;;;;;;;;;;;15.43;72.17;101306.94;108547;1262;60206;-84
2023/07/18 02:51:08;;;;;;;;;;;;;;;15.37;72.28;101307.39;108427;1261;125021;-84
2023/07/18 02:53:35;;;;;;;;;;;;;;;15.33;72.36;101306.27;108555;1261;67047;-84
2023/07/18 02:56:02;;;;;;;;;;;;;;;15.28;72.51;101303.89;108579;1262;71748;-84
2023/07/18 02:58:28;;;;;;;;;;;;;;;15.22;72.46;101305.05;108375;1261;126184;-84
2023/07/18 03:00:55;;;;;;;;;;;;;;;15.15;72.44;101305.84;108569;1262;59542;-85
2023/07/18 03:03:22;;;;;;;;;;;;;;;15.10;72.39;101307.36;108290;1264;125814;-84
2023/07/18 03:05:51;;;;;;;;;;;;;;;15.07;72.41;101305.00;108459;1264;67606;-85
2023/07/18 03:08:18;;;;;;;;;;;;;;;15.02;72.40;101303.52;108463;1264;125299;-85
2023/07/18 03:10:46;;;;;;;;;;;;;;;14.99;72.36;101298.67;108576;1277;59490;-85
2023/07/18 03:13:13;;;;;;;;;;;;;;;14.96;72.40;101295.30;108303;1262;59955;-85
2023/07/18 03:15:39;;;;;;;;;;;;;;;14.94;72.44;101298.27;108353;1262;125186;-85
2023/07/18 03:18:06;;;;;;;;;;;;;;;14.92;72.46;101295.59;108482;1266;67382;-84
2023/07/18 03:20:33;;;;;;;;;;;;;;;14.90;72.47;101293.27;108420;1261;124587;-85
2023/07/18 03:23:01;;;;;;;;;;;;;;;14.87;72.52;101292.67;108386;1266;59484;-85
2023/07/18 03:25:28;;;;;;;;;;;;;;;14.85;72.55;101290.16;108377;1266;60208;-85
2023/07/18 03:27:55;;;;;;;;;;;;;;;14.84;72.57;101293.33;108391;1261;126248;-84
2023/07/18 03:30:22;;;;;;;;;;;;;;;14.85;72.69;101299.02;108459;1263;67172;-85
2023/07/18 03:32:49;;;;;;;;;;;;;;;14.90;72.76;101303.14;108331;1262;126411;-85
2023/07/18 03:35:16;;;;;;;;;;;;;;;14.94;72.64;101306.92;108305;1262;59134;-85
2023/07/18 03:37:43;;;;;;;;;;;;;;;14.98;72.70;101313.00;108416;1262;60181;-85
2023/07/18 03:40:10;;;;;;;;;;;;;;;15.41;74.06;101316.81;108340;1262;126243;-85
2023/07/18 03:42:37;;;;;;;;;;;;;;;16.99;75.94;101315.54;108488;1260;68305;-86
2023/07/18 03:45:04;;;;;;;;;;;;;;;18.42;74.03;101312.73;108419;1262;124921;-85
2023/07/18 03:47:31;;;;;;;;;;;;;;;19.29;72.14;101317.02;108570;1262;60765;-85
2023/07/18 03:49:58;;;;;;;;;;;;;;;20.77;72.25;101321.29;108529;1260;60105;-84
2023/07/18 03:52:25;;;;;;;;;;;;;;;22.51;70.50;101318.27;108560;1264;125262;-85
2023/07/18 03:54:52;;;;;;;;;;;;;;;23.79;67.55;101323.02;108500;1262;68147;-84
2023/07/18 03:57:19;;;;;;;;;;;;;;;24.89;65.54;101323.05;108443;1261;126118;-84
2023/07/18 03:59:46;;;;;;;;;;;;;;;26.08;63.35;101323.02;108517;1262;59201;-84
2023/07/18 04:02:14;;;;;;;;;;;;;;;26.56;60.34;101322.44;108578;1264;61104;-85
2023/07/18 04:04:41;;;;;;;;;;;;;;;26.40;57.87;101326.91;108420;1261;72761;-85
2023/07/18 04:07:08;;;;;;;;;;;;;;;25.26;56.06;101327.30;108416;1262;66435;-85
2023/07/18 04:09:35;;;;;;;;;;;;;;;24.02;56.07;101332.20;108486;1263;124955;-85
2023/07/18 04:12:02;;;;;;;;;;;;;;;23.10;56.47;101324.33;108534;1266;59380;-85
2023/07/18 04:14:29;;;;;;;;;;;;;;;23.02;57.86;101321.42;108540;1262;124360;-87
2023/07/18 04:16:56;;;;;;;;;;;;;;;23.21;57.51;101323.98;108601;1262;73354;-83
2023/07/18 04:19:26;;;;;;;;;;;;;;;24.49;59.07;101318.41;108627;1261;67263;-86
2023/07/18 04:21:53;;;;;;;;;;;;;;;26.53;57.94;101309.88;108394;1267;125084;-86
2023/07/18 04:24:23;;;;;;;;;;;;;;;28.39;55.88;101311.15;108512;1261;59967;-85
2023/07/18 04:26:52;;;;;;;;;;;;;;;29.93;53.88;101305.57;108469;1262;124467;-85
2023/07/18 04:29:24;;;;;;;;;;;;;;;31.28;51.90;101308.33;108614;1261;64669;-85
2023/07/18 04:31:59;;;;;;;;;;;;;;;32.54;49.73;101311.17;108424;1261;59982;-85
2023/07/18 04:34:26;;;;;;;;;;;;;;;33.64;47.83;101312.20;108438;1264;124542;-86
2023/07/18 04:36:53;;;;;;;;;;;;;;;34.61;46.08;101314.69;108501;1262;59541;-87
2023/07/18 04:39:43;;;;;;;;;;;;;;;35.52;44.54;101319.40;108486;1264;59901;-87
2023/07/18 04:42:11;;;;;;;;;;;;;;;36.37;42.84;101316.21;108590;1264;65290;-87
2023/07/18 04:44:41;;;;;;;;;;;;;;;37.14;41.35;101315.69;108470;1260;125060;-87
2023/07/18 04:47:08;;;;;;;;;;;;;;;37.77;39.88;101316.52;108450;1260;62820;-85
2023/07/18 04:49:35;;;;;;;;;;;;;;;38.27;38.55;101312.75;108466;1261;59654;-84
2023/07/18 04:52:03;;;;;;;;;;;;;;;38.83;37.41;101320.99;108356;1264;125131;-85
2023/07/18 04:54:30;;;;;;;;;;;;;;;39.06;35.98;101331.67;108496;1261;66028;-85
2023/07/18 04:56:57;;;;;;;;;;;;;;;39.16;35.20;101329.69;108401;1261;124646;-85
2023/07/18 04:59:31;;;;;;;;;;;;;;;39.22;34.33;101333.97;108463;1266;64860;-90
2023/07/18 05:01:58;;;;;;;;;;;;;;;39.39;33.58;101337.39;108546;1262;59405;-91
2023/07/18 05:04:25;;;;;;;;;;;;;;;39.71;33.28;101339.93;108418;1261;124416;-90
2023/07/18 05:06:52;;;;;;;;;;;;;;;40.13;32.62;101340.73;108606;1261;66403;-84
2023/07/18 05:09:19;;;;;;;;;;;;;;;40.51;31.76;101342.14;108432;1262;126376;-84
2023/07/18 05:11:47;;;;;;;;;;;;;;;40.53;31.16;101345.37;108386;1267;63910;-84
2023/07/18 05:14:13;;;;;;;;;;;;;;;40.54;30.47;101343.80;108474;1262;59482;-85
2023/07/18 05:16:40;;;;;;;;;;;;;;;40.67;29.84;101341.89;108442;1265;124556;-85
2023/07/18 05:19:07;;;;;;;;;;;;;;;40.75;29.81;101343.37;108545;1266;65609;-84
2023/07/18 05:21:34;;;;;;;;;;;;;;;41.02;29.57;101338.41;108418;1266;125121;-83
2023/07/18 05:24:01;;;;;;;;;;;;;;;41.32;29.22;101330.11;108452;1260;64227;-84
2023/07/18 05:26:28;;;;;;;;;;;;;;;41.72;28.69;101328.23;108501;1262;125015;-83
2023/07/18 05:28:55;;;;;;;;;;;;;;;42.00;28.05;101327.11;108566;1261;59371;-83
2023/07/18 05:31:22;;;;;;;;;;;;;;;42.04;27.35;101327.88;108520;1265;66731;-83
2023/07/18 05:33:49;;;;;;;;;;;;;;;42.12;27.16;101329.81;108457;1261;124749;-84
2023/07/18 05:36:16;;;;;;;;;;;;;;;42.44;26.66;101328.45;108360;1260;64104;-83
2023/07/18 05:38:43;;;;;;;;;;;;;;;42.33;26.02;101326.77;108315;1261;124990;-83
2023/07/18 05:41:10;;;;;;;;;;;;;;;42.12;26.08;101333.33;108473;1266;60230;-84
2023/07/18 05:43:37;;;;;;;;;;;;;;;42.02;25.63;101336.48;108569;1261;66452;-84
2023/07/18 05:46:07;;;;;;;;;;;;;;;40.70;25.22;101344.80;108480;1261;124892;-84
2023/07/18 05:48:43;;;;;;;;;;;;;;;38.48;25.92;101343.20;108520;1261;63045;-84
2023/07/18 05:51:12;;;;;;;;;;;;;;;36.32;26.86;101343.49;108419;1260;125330;-83
2023/07/18 05:53:55;;;;;;;;;;;;;;;34.44;27.97;101339.80;108542;1261;59289;-85
2023/07/18 05:56:21;;;;;;;;;;;;;;;32.87;29.02;101345.05;108342;1263;124932;-83
2023/07/18 05:58:48;;;;;;;;;;;;;;;31.50;30.11;101349.58;108441;1260;59562;-84
2023/07/18 06:01:15;;;;;;;;;;;;;;;30.27;31.16;101346.51;108544;1266;63894;-84
2023/07/18 06:03:42;;;;;;;;;;;;;;;29.41;32.12;101348.48;108410;1266;126299;-84
2023/07/18 06:06:09;;;;;;;;;;;;;;;28.59;33.21;101349.94;108464;1266;60651;-84
2023/07/18 06:08:37;;;;;;;;;;;;;;;27.81;33.74;101352.56;108430;1264;124745;-84
2023/07/18 06:11:04;;;;;;;;;;;;;;;27.06;34.61;101350.73;108484;1260;67126;-84
2023/07/18 06:13:31;;;;;;;;;;;;;;;26.50;35.64;101349.27;108527;1264;73167;-84
2023/07/18 06:15:57;;;;;;;;;;;;;;;25.98;36.41;101355.51;108422;1260;124747;-84
2023/07/18 06:18:24;;;;;;;;;;;;;;;25.55;37.32;101356.73;108447;1268;59528;-84
2023/07/18 06:20:51;;;;;;;;;;;;;;;25.31;37.84;101364.21;108384;1261;125348;-84
2023/07/18 06:23:18;;;;;;;;;;;;;;;25.09;38.27;101366.38;108372;1260;65280;-85
2023/07/18 06:25:46;;;;;;;;;;;;;;;24.88;38.78;101369.59;108304;1266;71868;-84
2023/07/18 06:28:12;;;;;;;;;;;;;;;24.76;39.26;101371.13;108223;1263;124737;-84
2023/07/18 06:30:39;;;;;;;;;;;;;;;24.77;39.36;101370.95;108422;1266;59343;-85
2023/07/18 06:33:06;;;;;;;;;;;;;;;24.69;39.63;101368.97;108470;1266;125114;-84
2023/07/18 06:35:33;;;;;;;;;;;;;;;24.57;39.62;101374.99;108389;1274;68123;-84
2023/07/18 06:38:00;;;;;;;;;;;;;;;24.42;40.00;101378.87;108515;1260;71052;-84
2023/07/18 06:40:27;;;;;;;;;;;;;;;24.24;40.01;101382.32;108468;1268;124847;-84
2023/07/18 06:42:54;;;;;;;;;;;;;;;23.92;40.27;101381.40;108501;1261;59393;-84
2023/07/18 06:45:28;;;;;;;;;;;;;;;23.75;40.77;101383.84;108304;1267;124453;-84
2023/07/18 06:47:57;;;;;;;;;;;;;;;23.74;41.13;101388.36;108607;1261;66843;-84
2023/07/18 06:50:27;;;;;;;;;;;;;;;23.53;41.25;101391.44;108474;1265;124742;-83
2023/07/18 06:52:57;;;;;;;;;;;;;;;23.19;41.44;101379.68;108494;1267;59356;-83
2023/07/18 06:55:24;;;;;;;;;;;;;;;23.04;41.98;101380.63;108461;1260;59781;-83
2023/07/18 06:57:51;;;;;;;;;;;;;;;22.89;42.29;101378.18;108470;1267;124767;-83
2023/07/18 07:00:19;;;;;;;;;;;;;;;22.87;42.78;101380.54;108462;1266;66675;-84
2023/07/18 07:02:58;;;;;;;;;;;;;;;;;;;;;
2023/07/18 07:05:27;;;;;;;;;;;;;;;23.21;43.03;101371.05;108487;1264;59169;-84
2023/07/18 07:07:54;;;;;;;;;;;;;;;23.39;43.07;101377.35;108554;1260;60500;-86
2023/07/18 07:10:21;;;;;;;;;;;;;;;23.33;42.93;101376.77;108293;1266;125268;-84
2023/07/18 07:12:48;;;;;;;;;;;;;;;23.19;43.11;101382.37;108551;1260;67125;-84
2023/07/18 07:15:15;;;;;;;;;;;;;;;23.04;43.31;101388.70;108361;1264;125783;-84
2023/07/18 07:17:42;;;;;;;;;;;;;;;22.93;43.49;101390.65;108469;1264;59494;-84
2023/07/18 07:20:12;;;;;;;;;;;;;;;22.84;43.53;101393.11;108542;1261;59371;-84
2023/07/18 07:22:43;;;;;;;;;;;;;;;22.81;43.73;101392.64;108315;1261;124953;-84
2023/07/18 07:25:13;;;;;;;;;;;;;;;22.85;43.80;101398.28;108583;1261;65254;-84
2023/07/18 07:27:44;;;;;;;;;;;;;;;22.88;43.71;101399.85;108422;1261;125184;-84
2023/07/18 07:30:15;;;;;;;;;;;;;;;22.83;43.94;101401.17;108397;1267;60146;-83
2023/07/18 07:32:43;;;;;;;;;;;;;;;23.04;44.32;101401.77;108347;1260;125031;-84
2023/07/18 07:35:09;;;;;;;;;;;;;;;23.20;44.21;101404.90;108453;1276;75358;-84
2023/07/18 07:37:36;;;;;;;;;;;;;;;23.33;44.01;101408.63;108426;1260;67089;-84
2023/07/18 07:40:08;;;;;;;;;;;;;;;23.44;43.75;101410.22;108211;1261;126360;-84
2023/07/18 07:42:36;;;;;;;;;;;;;;;23.36;43.39;101408.75;108359;1264;59888;-84
2023/07/18 07:45:03;;;;;;;;;;;;;;;23.16;43.54;101406.42;108393;1263;124658;-84
2023/07/18 07:47:30;;;;;;;;;;;;;;;22.98;43.62;101409.17;108394;1261;75490;-84
2023/07/18 07:49:57;;;;;;;;;;;;;;;22.73;43.83;101410.29;108346;1260;68147;-84
2023/07/18 07:52:23;;;;;;;;;;;;;;;22.50;44.08;101414.53;108293;1264;125187;-83
2023/07/18 07:54:50;;;;;;;;;;;;;;;22.39;44.65;101407.72;108425;1263;60142;-83
2023/07/18 07:57:17;;;;;;;;;;;;;;;22.38;44.81;101408.45;108372;1263;125323;-85
2023/07/18 07:59:44;;;;;;;;;;;;;;;22.29;44.93;101408.57;108522;1265;73621;-83
2023/07/18 08:02:14;;;;;;;;;;;;;;;22.36;45.26;101407.22;108567;1260;65780;-83
2023/07/18 08:04:41;;;;;;;;;;;;;;;22.61;45.47;101407.95;108502;1260;126398;-85
2023/07/18 08:07:08;;;;;;;;;;;;;;;22.78;45.06;101403.76;108486;1266;59671;-85
2023/07/18 08:09:36;;;;;;;;;;;;;;;22.84;44.95;101405.11;108481;1260;126515;-84
2023/07/18 08:12:06;;;;;;;;;;;;;;;23.10;44.76;101402.73;108581;1260;74492;-84
2023/07/18 08:14:33;;;;;;;;;;;;;;;23.41;44.41;101393.62;108543;1260;125069;-84
2023/07/18 08:17:01;;;;;;;;;;;;;;;23.56;44.14;101398.17;108535;1260;72737;-84
2023/07/18 08:19:28;;;;;;;;;;;;;;;23.66;43.90;101399.63;108505;1260;59249;-84
2023/07/18 08:21:56;;;;;;;;;;;;;;;23.73;43.54;101400.20;108335;1260;125073;-84
2023/07/18 08:24:23;;;;;;;;;;;;;;;23.88;43.15;101404.77;108335;1264;73115;-85
2023/07/18 08:26:50;;;;;;;;;;;;;;;24.15;43.12;101399.38;108397;1264;125016;-85
2023/07/18 08:29:20;;;;;;;;;;;;;;;24.47;42.73;101399.79;108518;1264;71409;-85
2023/07/18 08:31:48;;;;;;;;;;;;;;;24.48;42.36;101404.60;108507;1260;59475;-85
2023/07/18 08:34:16;;;;;;;;;;;;;;;24.35;42.41;101409.35;108505;1261;124698;-85
2023/07/18 08:36:46;;;;;;;;;;;;;;;24.26;42.38;101416.73;108640;1260;75049;-85
2023/07/18 08:39:16;;;;;;;;;;;;;;;24.17;42.17;101416.02;108558;1261;125840;-85
2023/07/18 08:41:44;;;;;;;;;;;;;;;24.01;42.32;101418.48;108505;1261;72568;-85
2023/07/18 08:44:18;;;;;;;;;;;;;;;23.91;42.68;101414.02;108515;1260;59193;-84
2023/07/18 08:46:45;;;;;;;;;;;;;;;23.72;42.47;101416.00;108370;1260;124785;-84
2023/07/18 08:49:14;;;;;;;;;;;;;;;23.56;42.54;101411.63;108567;1260;73532;-84
2023/07/18 08:51:41;;;;;;;;;;;;;;;23.51;42.57;101403.12;108319;1261;124970;-84
2023/07/18 08:54:09;;;;;;;;;;;;;;;23.57;42.77;101395.82;108414;1266;73755;-85
2023/07/18 08:56:43;;;;;;;;;;;;;;;23.69;42.68;101392.39;108279;1267;125724;-83
2023/07/18 08:59:10;;;;;;;;;;;;;;;23.85;42.63;101391.39;108446;1260;60183;-84
2023/07/18 09:01:52;;;;;;;;;;;;;;;24.02;42.53;101387.30;108622;1260;74652;-85
2023/07/18 09:04:19;;;;;;;;;;;;;;;24.30;42.33;101383.81;108514;1260;125571;-84
2023/07/18 09:07:10;;;;;;;;;;;;;;;24.69;42.22;101384.58;108494;1261;72512;-84
2023/07/18 09:09:46;;;;;;;;;;;;;;;25.07;41.61;101383.11;108492;1260;124924;-84
2023/07/18 09:12:13;;;;;;;;;;;;;;;25.30;41.05;101379.84;108629;1261;59450;-85
2023/07/18 09:14:40;;;;;;;;;;;;;;;25.34;40.60;101383.34;108427;1267;125550;-85
2023/07/18 09:17:08;;;;;;;;;;;;;;;25.43;40.61;101385.45;108617;1261;65911;-84
2023/07/18 09:19:37;;;;;;;;;;;;;;;25.33;40.19;101381.21;108512;1262;72824;-84
2023/07/18 09:22:10;;;;;;;;;;;;;;;25.03;40.21;101383.93;108465;1260;125297;-84
2023/07/18 09:24:37;;;;;;;;;;;;;;;24.53;40.87;101380.45;108452;1260;60115;-85
2023/07/18 09:27:05;;;;;;;;;;;;;;;24.19;41.62;101391.95;108411;1276;125758;-84
2023/07/18 09:29:31;;;;;;;;;;;;;;;24.10;42.02;101390.34;108571;1260;68338;-84
2023/07/18 09:31:59;;;;;;;;;;;;;;;24.04;41.79;101386.52;108507;1260;71275;-84
2023/07/18 09:34:26;;;;;;;;;;;;;;;23.91;41.66;101384.83;108436;1262;125031;-85
2023/07/18 09:36:57;;;;;;;;;;;;;;;23.89;41.80;101390.05;108476;1260;59602;-85
2023/07/18 09:39:25;;;;;;;;;;;;;;;23.95;41.63;101387.79;108371;1260;124877;-84
2023/07/18 09:41:52;;;;;;;;;;;;;;;24.05;41.90;101387.59;108494;1261;67457;-84
2023/07/18 09:44:19;;;;;;;;;;;;;;;24.05;41.75;101379.85;108347;1260;71887;-84
2023/07/18 09:46:47;;;;;;;;;;;;;;;24.03;42.03;101380.27;108366;1264;125826;-84
2023/07/18 09:49:14;;;;;;;;;;;;;;;23.96;41.99;101381.84;108493;1261;59119;-85
2023/07/18 09:51:41;;;;;;;;;;;;;;;23.88;41.94;101380.39;108421;1261;124769;-85
2023/07/18 09:54:09;;;;;;;;;;;;;;;23.72;41.90;101383.54;108413;1260;66772;-84
2023/07/18 09:56:39;;;;;;;;;;;;;;;23.52;41.88;101382.86;108509;1260;125587;-84
2023/07/18 09:59:08;;;;;;;;;;;;;;;23.36;41.86;101378.67;108611;1260;59137;-84
2023/07/18 10:01:35;;;;;;;;;;;;;;;23.29;41.89;101373.06;108549;1260;59365;-84
2023/07/18 10:04:02;;;;;;;;;;;;;;;23.26;41.79;101374.20;108481;1260;125739;-84
2023/07/18 10:06:30;;;;;;;;;;;;;;;23.21;41.43;101369.81;108509;1267;67371;-84
2023/07/18 10:08:57;;;;;;;;;;;;;;;23.25;41.56;101369.20;108397;1260;127456;-84
2023/07/18 10:11:24;;;;;;;;;;;;;;;23.28;41.32;101366.63;108625;1260;59363;-84
2023/07/18 10:14:06;;;;;;;;;;;;;;;23.32;41.39;101368.55;108531;1264;59365;-83
2023/07/18 10:16:36;;;;;;;;;;;;;;;23.34;41.30;101376.75;108506;1260;124774;-83
2023/07/18 10:19:23;;;;;;;;;;;;;;;23.28;40.97;101373.97;108465;1260;66396;-85
2023/07/18 10:21:53;;;;;;;;;;;;;;;23.21;41.01;101374.27;108280;1260;124812;-85
2023/07/18 10:24:20;;;;;;;;;;;;;;;23.16;41.00;101381.52;108363;1260;59710;-85
2023/07/18 10:26:50;;;;;;;;;;;;;;;23.09;40.91;101379.69;108429;1265;125036;-85
2023/07/18 10:29:17;;;;;;;;;;;;;;;22.99;41.04;101379.29;108534;1261;74706;-84
2023/07/18 10:31:44;;;;;;;;;;;;;;;23.00;41.61;101378.54;108623;1260;66829;-85
2023/07/18 10:34:14;;;;;;;;;;;;;;;23.08;41.68;101374.33;108390;1260;124773;-84
2023/07/18 10:36:57;;;;;;;;;;;;;;;23.15;41.67;101371.52;108518;1266;59935;-85
2023/07/18 10:39:39;;;;;;;;;;;;;;;23.23;42.06;101372.45;108539;1261;125788;-85
2023/07/18 10:42:29;;;;;;;;;;;;;;;23.30;42.44;101375.91;108481;1261;74695;-85
2023/07/18 10:45:14;;;;;;;;;;;;;;;23.44;42.66;101382.99;108466;1261;126298;-85
2023/07/18 10:47:41;;;;;;;;;;;;;;;23.63;42.51;101386.95;108577;1261;71503;-83
2023/07/18 10:50:09;;;;;;;;;;;;;;;23.79;42.46;101388.46;108347;1260;266951;-83
2023/07/18 10:52:36;;;;;;;;;;;;;;;23.90;42.42;101382.69;108440;1261;125084;-85
2023/07/18 10:55:07;;;;;;;;;;;;;;;23.99;42.22;101385.01;108659;1260;73446;-84
2023/07/18 10:57:34;;;;;;;;;;;;;;;24.15;41.97;101380.19;108516;1270;125498;-84
2023/07/18 11:00:04;;;;;;;;;;;;;;;24.43;41.99;101374.02;108398;1260;73343;-84
2023/07/18 11:02:35;;;;;;;;;;;;;;;24.72;41.84;101369.08;108488;1260;124963;-84
2023/07/18 11:05:05;;;;;;;;;;;;;;;24.95;41.56;101372.65;108622;1260;59503;-84
2023/07/18 11:07:35;;;;;;;;;;;;;;;25.18;41.00;101370.80;108549;1260;73390;-84
2023/07/18 11:10:03;;;;;;;;;;;;;;;25.43;40.54;101371.62;108449;1260;125424;-84
2023/07/18 11:12:30;;;;;;;;;;;;;;;25.62;40.19;101368.94;108402;1260;72707;-84
2023/07/18 11:14:57;;;;;;;;;;;;;;;25.77;39.74;101367.98;108496;1260;125017;-84
2023/07/18 11:17:24;;;;;;;;;;;;;;;25.89;39.40;101361.17;108471;1260;59483;-85
2023/07/18 11:19:54;;;;;;;;;;;;;;;26.00;39.08;101354.23;108621;1261;73524;-84
2023/07/18 11:22:21;;;;;;;;;;;;;;;26.13;39.03;101357.05;108501;1260;125060;-85
2023/07/18 11:24:48;;;;;;;;;;;;;;;26.30;38.66;101351.67;108557;1260;72218;-84
2023/07/18 11:27:21;;;;;;;;;;;;;;;26.46;38.59;101351.17;108435;1262;125009;-84
2023/07/18 11:29:53;;;;;;;;;;;;;;;26.60;38.31;101352.20;108572;1260;59654;-84
2023/07/18 11:32:30;;;;;;;;;;;;;;;26.69;38.13;101351.75;108461;1262;75623;-84
2023/07/18 11:34:58;;;;;;;;;;;;;;;26.75;37.78;101353.73;108562;1260;66964;-84
2023/07/18 11:37:25;;;;;;;;;;;;;;;26.67;38.01;101355.77;108511;1262;73733;-84
2023/07/18 11:39:55;;;;;;;;;;;;;;;26.44;37.92;101361.86;108525;1261;125331;-84
2023/07/18 11:42:22;;;;;;;;;;;;;;;26.01;37.93;101375.40;108533;1260;59396;-84
2023/07/18 11:44:51;;;;;;;;;;;;;;;25.29;39.19;101398.90;108378;1262;125064;-84
2023/07/18 11:47:18;;;;;;;;;;;;;;;24.45;40.55;101406.98;108558;1261;65623;-84
2023/07/18 11:49:45;;;;;;;;;;;;;;;23.72;41.94;101393.23;108621;1260;72976;-84
2023/07/18 11:52:12;;;;;;;;;;;;;;;23.15;42.75;101382.60;108418;1261;124255;-84
2023/07/18 11:54:39;;;;;;;;;;;;;;;22.77;43.30;101382.83;108568;1260;59320;-84
2023/07/18 11:57:06;;;;;;;;;;;;;;;22.53;44.17;101372.83;108441;1260;125235;-84
2023/07/18 11:59:33;;;;;;;;;;;;;;;22.45;44.96;101381.36;108481;1261;65726;-85
2023/07/18 12:02:01;;;;;;;;;;;;;;;22.48;45.41;101376.84;108572;1261;71410;-84
2023/07/18 12:04:29;;;;;;;;;;;;;;;22.50;45.44;101367.69;108342;1260;125381;-84
2023/07/18 12:06:57;;;;;;;;;;;;;;;22.50;46.11;101365.72;108416;1262;59692;-84
2023/07/18 12:09:24;;;;;;;;;;;;;;;22.46;46.51;101360.79;108364;1260;125019;-84
2023/07/18 12:11:51;;;;;;;;;;;;;;;22.38;46.76;101362.50;108578;1260;67924;-84
2023/07/18 12:14:18;;;;;;;;;;;;;;;22.28;47.21;101367.27;108550;1260;71452;-84
2023/07/18 12:16:45;;;;;;;;;;;;;;;22.22;47.75;101361.08;108472;1260;124864;-84
2023/07/18 12:19:12;;;;;;;;;;;;;;;22.11;47.57;101361.93;108421;1261;59352;-84
2023/07/18 12:21:39;;;;;;;;;;;;;;;22.00;47.74;101357.61;108451;1261;125436;-84
2023/07/18 12:24:06;;;;;;;;;;;;;;;22.02;48.23;101355.27;108430;1261;67547;-84
2023/07/18 12:26:33;;;;;;;;;;;;;;;22.13;48.41;101358.69;108359;1260;125731;-83
2023/07/18 12:29:00;;;;;;;;;;;;;;;22.26;48.52;101356.02;108450;1262;59377;-84